createdAt,value
2023-05-15T00:00:45.729Z,12.70
2023-05-15T00:04:09.729Z,12.70
2023-05-15T00:07:33.823Z,12.70
2023-05-15T00:11:01.906Z,12.80
2023-05-15T00:14:26.181Z,12.70
2023-05-15T00:17:49.775Z,12.60
2023-05-15T00:21:20.706Z,12.70
2023-05-15T00:24:44.317Z,12.70
2023-05-15T00:28:10.091Z,12.70
2023-05-15T00:31:34.019Z,12.60
2023-05-15T00:34:57.769Z,12.60
2023-05-15T00:38:21.797Z,12.60
2023-05-15T00:41:47.189Z,12.60
2023-05-15T00:45:13.855Z,12.50
2023-05-15T00:48:38.447Z,12.40
2023-05-15T00:52:03.722Z,12.30
2023-05-15T00:55:29.469Z,12.30
2023-05-15T00:58:56.180Z,12.40
2023-05-15T01:02:21.306Z,12.40
2023-05-15T01:05:46.126Z,12.50
2023-05-15T01:09:12.115Z,12.50
2023-05-15T01:12:38.560Z,12.50
2023-05-15T01:16:03.026Z,12.40
2023-05-15T01:19:28.352Z,12.40
2023-05-15T01:23:11.208Z,12.40
2023-05-15T01:27:16.948Z,12.40
2023-05-15T01:30:44.452Z,12.30
2023-05-15T01:34:12.096Z,12.30
2023-05-15T01:37:45.668Z,12.30
2023-05-15T01:41:14.860Z,12.30
2023-05-15T01:44:45.792Z,12.30
2023-05-15T01:48:10.880Z,12.20
2023-05-15T01:51:35.527Z,12.30
2023-05-15T01:55:01.196Z,12.20
2023-05-15T01:58:27.714Z,12.20
2023-05-15T02:01:53.940Z,12.10
2023-05-15T02:05:19.749Z,12.10
2023-05-15T02:08:44.607Z,12.10
2023-05-15T02:12:09.406Z,12.00
2023-05-15T02:15:34.384Z,12.00
2023-05-15T02:19:00.538Z,12.00
2023-05-15T02:22:24.937Z,12.00
2023-05-15T02:26:08.662Z,12.00
2023-05-15T02:29:40.033Z,12.00
2023-05-15T02:33:15.639Z,12.00
2023-05-15T02:36:43.928Z,12.00
2023-05-15T02:40:12.885Z,12.00
2023-05-15T02:43:37.357Z,12.00
2023-05-15T02:47:01.364Z,11.90
2023-05-15T02:50:25.301Z,11.90
2023-05-15T02:53:50.687Z,11.80
2023-05-15T02:57:14.979Z,11.80
2023-05-15T03:00:41.946Z,11.80
2023-05-15T03:04:06.202Z,11.70
2023-05-15T03:07:30.016Z,11.60
2023-05-15T03:10:55.402Z,11.60
2023-05-15T03:14:19.006Z,11.60
2023-05-15T03:17:42.966Z,11.60
2023-05-15T03:21:07.213Z,11.60
2023-05-15T03:24:31.012Z,11.50
2023-05-15T03:27:56.349Z,11.40
2023-05-15T03:31:21.031Z,11.40
2023-05-15T03:34:45.106Z,11.40
2023-05-15T03:38:09.013Z,11.40
2023-05-15T03:41:33.091Z,11.40
2023-05-15T03:44:59.311Z,11.40
2023-05-15T03:48:22.928Z,11.40
2023-05-15T03:51:48.139Z,11.40
2023-05-15T03:55:12.153Z,11.50
2023-05-15T03:58:37.153Z,11.50
2023-05-15T04:02:05.510Z,11.50
2023-05-15T04:05:30.094Z,11.60
2023-05-15T04:08:56.456Z,11.60
2023-05-15T04:12:20.172Z,11.70
2023-05-15T04:15:44.254Z,11.70
2023-05-15T04:19:11.607Z,11.80
2023-05-15T04:22:36.156Z,11.90
2023-05-15T04:26:02.157Z,12.00
2023-05-15T04:29:26.171Z,12.10
2023-05-15T04:32:51.653Z,12.20
2023-05-15T04:36:17.272Z,12.30
2023-05-15T04:39:41.070Z,12.30
2023-05-15T04:43:05.870Z,12.30
2023-05-15T04:46:30.487Z,12.40
2023-05-15T04:49:55.098Z,12.50
2023-05-15T04:53:22.715Z,12.70
2023-05-15T04:56:47.184Z,12.80
2023-05-15T05:00:15.309Z,12.90
2023-05-15T05:03:39.158Z,12.90
2023-05-15T05:07:05.629Z,13.10
2023-05-15T05:10:32.660Z,13.40
2023-05-15T05:13:57.212Z,14.00
2023-05-15T05:17:21.070Z,14.90
2023-05-15T05:20:45.139Z,15.80
2023-05-15T05:24:09.142Z,16.50
2023-05-15T05:27:34.036Z,17.20
2023-05-15T05:30:57.620Z,17.90
2023-05-15T05:34:21.573Z,18.30
2023-05-15T05:37:46.248Z,18.60
2023-05-15T05:41:10.193Z,19.00
2023-05-15T05:44:35.169Z,19.60
2023-05-15T05:47:59.264Z,19.80
2023-05-15T05:51:22.834Z,20.00
2023-05-15T05:54:47.978Z,20.70
2023-05-15T05:58:21.703Z,21.30
2023-05-15T06:01:51.446Z,21.10
2023-05-15T06:05:15.335Z,21.20
2023-05-15T06:08:38.912Z,21.30
2023-05-15T06:12:04.500Z,21.30
2023-05-15T06:15:28.216Z,21.40
2023-05-15T06:18:53.116Z,21.20
2023-05-15T06:22:16.749Z,21.00
2023-05-15T06:25:40.497Z,21.10
2023-05-15T06:29:04.018Z,21.60
2023-05-15T06:32:27.609Z,21.80
2023-05-15T06:35:52.601Z,21.70
2023-05-15T06:39:16.165Z,22.20
2023-05-15T06:42:39.739Z,22.30
2023-05-15T06:46:03.346Z,22.10
2023-05-15T06:49:27.848Z,22.50
2023-05-15T06:52:52.822Z,22.90
2023-05-15T06:56:17.267Z,23.00
2023-05-15T06:59:40.861Z,23.40
2023-05-15T07:03:05.618Z,23.50
2023-05-15T07:06:31.785Z,23.90
2023-05-15T07:09:56.883Z,24.20
2023-05-15T07:13:21.783Z,24.40
2023-05-15T07:16:47.036Z,24.30
2023-05-15T07:20:11.505Z,24.30
2023-05-15T07:23:35.138Z,24.40
2023-05-15T07:27:00.238Z,24.70
2023-05-15T07:30:24.565Z,24.90
2023-05-15T07:33:48.423Z,25.10
2023-05-15T07:37:11.945Z,25.30
2023-05-15T07:40:35.560Z,25.30
2023-05-15T07:44:00.521Z,25.50
2023-05-15T07:47:24.177Z,26.30
2023-05-15T07:50:48.730Z,27.40
2023-05-15T07:54:12.408Z,27.40
2023-05-15T07:57:36.133Z,27.70
2023-05-15T08:01:01.630Z,27.70
2023-05-15T08:04:25.307Z,27.90
2023-05-15T08:07:48.915Z,28.20
2023-05-15T08:11:12.558Z,28.50
2023-05-15T08:14:36.423Z,27.70
2023-05-15T08:18:01.604Z,27.90
2023-05-15T08:21:25.323Z,28.00
2023-05-15T08:24:49.014Z,28.00
2023-05-15T08:28:12.743Z,28.30
2023-05-15T08:31:36.353Z,28.80
2023-05-15T08:35:01.365Z,29.00
2023-05-15T08:38:24.910Z,28.80
2023-05-15T08:41:52.941Z,29.70
2023-05-15T08:45:16.668Z,30.10
2023-05-15T08:48:43.171Z,30.90
2023-05-15T08:52:08.931Z,31.20
2023-05-15T08:55:32.880Z,31.20
2023-05-15T08:58:56.480Z,31.30
2023-05-15T09:02:20.868Z,29.80
2023-05-15T09:05:44.717Z,29.50
2023-05-15T09:09:13.501Z,28.30
2023-05-15T09:12:40.850Z,27.30
2023-05-15T09:16:04.650Z,25.50
2023-05-15T09:19:28.917Z,24.30
2023-05-15T09:22:52.488Z,25.30
2023-05-15T09:26:17.378Z,27.00
2023-05-15T09:29:42.037Z,27.50
2023-05-15T09:33:05.771Z,26.40
2023-05-15T09:36:29.883Z,24.60
2023-05-15T09:39:53.497Z,23.50
2023-05-15T09:43:18.508Z,22.40
2023-05-15T09:46:42.140Z,22.10
2023-05-15T09:50:06.230Z,21.90
2023-05-15T09:53:30.533Z,22.10
2023-05-15T09:56:54.923Z,22.70
2023-05-15T10:00:22.129Z,22.50
2023-05-15T10:03:46.023Z,22.70
2023-05-15T10:07:10.206Z,24.10
2023-05-15T10:10:34.233Z,25.90
2023-05-15T10:13:58.884Z,27.40
2023-05-15T10:17:24.166Z,26.20
2023-05-15T10:20:48.289Z,27.30
2023-05-15T10:24:13.278Z,28.10
2023-05-15T10:27:38.565Z,28.30
2023-05-15T10:31:04.253Z,28.80
2023-05-15T10:34:30.065Z,28.10
2023-05-15T10:37:54.557Z,27.40
2023-05-15T10:41:20.257Z,28.10
2023-05-15T10:44:43.824Z,28.30
2023-05-15T10:48:08.758Z,27.70
2023-05-15T10:51:36.714Z,26.70
2023-05-15T10:55:01.021Z,26.10
2023-05-15T10:58:25.319Z,25.30
2023-05-15T11:01:49.851Z,24.60
2023-05-15T11:05:14.447Z,24.00
2023-05-15T11:08:40.519Z,23.30
2023-05-15T11:12:05.725Z,23.40
2023-05-15T11:15:43.056Z,23.30
2023-05-15T11:19:23.107Z,23.30
2023-05-15T11:22:59.057Z,23.10
2023-05-15T11:26:33.941Z,23.10
2023-05-15T11:30:15.081Z,22.80
2023-05-15T11:33:40.690Z,22.30
2023-05-15T11:37:04.348Z,21.90
2023-05-15T11:40:29.507Z,21.60
2023-05-15T11:43:54.437Z,21.10
2023-05-15T11:47:18.022Z,20.70
2023-05-15T11:50:42.988Z,20.70
2023-05-15T11:54:08.119Z,20.90
2023-05-15T11:57:31.821Z,21.10
2023-05-15T12:00:58.745Z,21.50
2023-05-15T12:04:22.691Z,21.30
2023-05-15T12:07:46.640Z,21.40
2023-05-15T12:11:10.595Z,21.40
2023-05-15T12:14:34.622Z,21.20
2023-05-15T12:18:04.267Z,21.20
2023-05-15T12:21:28.051Z,20.90
2023-05-15T12:24:51.896Z,20.80
2023-05-15T12:28:16.109Z,20.90
2023-05-15T12:31:40.054Z,21.00
2023-05-15T12:35:06.032Z,21.00
2023-05-15T12:38:30.391Z,20.90
2023-05-15T12:41:55.777Z,21.40
2023-05-15T12:45:21.467Z,21.50
2023-05-15T12:48:45.794Z,21.40
2023-05-15T12:52:13.571Z,21.60
2023-05-15T12:55:37.734Z,21.40
2023-05-15T12:59:01.697Z,21.10
2023-05-15T13:02:25.581Z,20.90
2023-05-15T13:05:49.384Z,20.60
2023-05-15T13:09:14.609Z,20.70
2023-05-15T13:12:39.285Z,20.70
2023-05-15T13:16:02.958Z,20.50
2023-05-15T13:19:26.538Z,20.50
2023-05-15T13:22:50.110Z,20.60
2023-05-15T13:26:15.092Z,20.90
2023-05-15T13:29:38.750Z,21.30
2023-05-15T13:33:03.048Z,21.40
2023-05-15T13:36:26.678Z,21.50
2023-05-15T13:39:50.341Z,21.40
2023-05-15T13:43:15.247Z,21.50
2023-05-15T13:46:38.835Z,21.50
2023-05-15T13:50:03.762Z,21.60
2023-05-15T13:53:27.823Z,21.80
2023-05-15T13:56:51.600Z,21.90
2023-05-15T14:00:18.521Z,21.70
2023-05-15T14:03:42.142Z,21.60
2023-05-15T14:07:06.079Z,21.30
2023-05-15T14:10:30.353Z,20.80
2023-05-15T14:13:54.015Z,20.80
2023-05-15T14:17:19.301Z,21.00
2023-05-15T14:20:43.011Z,21.10
2023-05-15T14:24:07.955Z,21.10
2023-05-15T14:27:31.625Z,21.10
2023-05-15T14:30:55.369Z,21.00
2023-05-15T14:34:22.379Z,20.80
2023-05-15T14:37:45.970Z,20.80
2023-05-15T14:41:09.745Z,20.70
2023-05-15T14:44:33.527Z,20.90
2023-05-15T14:47:57.185Z,21.00
2023-05-15T14:51:22.385Z,21.30
2023-05-15T14:54:51.191Z,21.30
2023-05-15T14:58:20.869Z,21.40
2023-05-15T15:01:50.297Z,21.70
2023-05-15T15:05:15.879Z,21.50
2023-05-15T15:08:42.253Z,21.40
2023-05-15T15:12:07.719Z,21.40
2023-05-15T15:15:33.099Z,21.10
2023-05-15T15:18:57.025Z,21.10
2023-05-15T15:22:21.892Z,20.90
2023-05-15T15:25:52.789Z,21.00
2023-05-15T15:29:17.705Z,21.00
2023-05-15T15:32:42.366Z,20.90
2023-05-15T15:36:06.854Z,20.60
2023-05-15T15:39:30.454Z,20.50
2023-05-15T15:42:55.360Z,20.30
2023-05-15T15:46:19.144Z,20.30
2023-05-15T15:49:43.320Z,20.40
2023-05-15T15:53:06.880Z,20.60
2023-05-15T15:56:30.566Z,20.80
2023-05-15T15:59:55.599Z,20.80
2023-05-15T16:03:19.234Z,20.60
2023-05-15T16:06:43.806Z,20.70
2023-05-15T16:10:12.973Z,20.70
2023-05-15T16:13:37.906Z,20.90
2023-05-15T16:17:05.792Z,20.60
2023-05-15T16:20:29.658Z,20.60
2023-05-15T16:23:53.426Z,20.50
2023-05-15T16:27:16.974Z,20.50
2023-05-15T16:30:48.970Z,20.50
2023-05-15T16:34:16.199Z,20.30
2023-05-15T16:37:48.126Z,20.10
2023-05-15T16:41:11.681Z,20.00
2023-05-15T16:44:35.659Z,19.80
2023-05-15T16:47:59.333Z,19.70
2023-05-15T16:51:24.340Z,19.50
2023-05-15T16:54:48.561Z,19.50
2023-05-15T16:58:12.178Z,19.60
2023-05-15T17:01:36.350Z,19.60
2023-05-15T17:05:00.082Z,19.40
2023-05-15T17:08:25.053Z,19.10
2023-05-15T17:11:48.663Z,19.00
2023-05-15T17:15:12.931Z,18.90
2023-05-15T17:18:36.753Z,18.90
2023-05-15T17:22:00.331Z,19.00
2023-05-15T17:25:25.715Z,19.00
2023-05-15T17:28:49.712Z,18.70
2023-05-15T17:32:13.563Z,18.70
2023-05-15T17:35:37.304Z,18.60
2023-05-15T17:39:01.256Z,18.60
2023-05-15T17:42:28.191Z,18.60
2023-05-15T17:45:51.806Z,18.60
2023-05-15T17:49:15.436Z,18.60
2023-05-15T17:52:39.265Z,18.40
2023-05-15T17:56:03.770Z,18.30
2023-05-15T17:59:29.105Z,18.20
2023-05-15T18:02:54.536Z,18.20
2023-05-15T18:06:19.179Z,18.30
2023-05-15T18:09:42.762Z,18.30
2023-05-15T18:13:06.383Z,18.30
2023-05-15T18:16:32.735Z,18.20
2023-05-15T18:19:56.489Z,18.00
2023-05-15T18:23:20.600Z,18.00
2023-05-15T18:26:44.196Z,17.90
2023-05-15T18:30:09.794Z,17.80
2023-05-15T18:33:37.213Z,17.70
2023-05-15T18:37:00.773Z,17.60
2023-05-15T18:40:26.474Z,17.00
2023-05-15T18:43:50.238Z,16.40
2023-05-15T18:47:14.349Z,15.90
2023-05-15T18:50:40.386Z,15.60
2023-05-15T18:54:04.046Z,15.20
2023-05-15T18:57:28.319Z,14.60
2023-05-15T19:00:52.314Z,14.20
2023-05-15T19:04:16.312Z,13.70
2023-05-15T19:07:42.739Z,13.40
2023-05-15T19:11:08.687Z,13.30
2023-05-15T19:14:34.467Z,13.30
2023-05-15T19:17:58.403Z,13.30
2023-05-15T19:21:22.448Z,13.40
2023-05-15T19:24:48.382Z,13.50
2023-05-15T19:28:12.974Z,13.60
2023-05-15T19:31:38.911Z,13.50
2023-05-15T19:35:03.168Z,13.50
2023-05-15T19:38:28.519Z,13.50
2023-05-15T19:41:55.657Z,13.50
2023-05-15T19:45:19.697Z,13.60
2023-05-15T19:48:44.488Z,13.60
2023-05-15T19:52:09.947Z,13.70
2023-05-15T19:55:33.652Z,13.60
2023-05-15T19:58:59.717Z,13.70
2023-05-15T20:02:24.386Z,13.70
2023-05-15T20:05:48.426Z,13.60
2023-05-15T20:09:14.538Z,13.50
2023-05-15T20:12:41.502Z,13.50
2023-05-15T20:16:12.489Z,13.50
2023-05-15T20:19:37.147Z,13.50
2023-05-15T20:23:01.600Z,13.50
2023-05-15T20:26:25.356Z,13.50
2023-05-15T20:29:49.573Z,13.40
2023-05-15T20:33:14.932Z,13.30
2023-05-15T20:36:39.818Z,13.20
2023-05-15T20:40:12.754Z,13.00
2023-05-15T20:43:40.962Z,13.00
2023-05-15T20:47:05.003Z,12.90
2023-05-15T20:50:30.955Z,12.70
2023-05-15T20:53:54.739Z,12.50
2023-05-15T20:57:20.686Z,12.40
2023-05-15T21:00:45.444Z,12.30
2023-05-15T21:04:09.324Z,12.20
2023-05-15T21:07:34.241Z,12.20
2023-05-15T21:10:57.852Z,12.20
2023-05-15T21:14:21.435Z,12.30
2023-05-15T21:17:45.062Z,12.30
2023-05-15T21:21:09.511Z,12.30
2023-05-15T21:24:44.805Z,12.30
2023-05-15T21:28:08.597Z,12.40
2023-05-15T21:31:32.564Z,12.30
2023-05-15T21:34:56.275Z,12.20
2023-05-15T21:38:20.482Z,12.30
2023-05-15T21:41:45.894Z,12.30
2023-05-15T21:45:10.959Z,12.30
2023-05-15T21:48:35.501Z,12.30
2023-05-15T21:51:59.468Z,12.30
2023-05-15T21:55:23.482Z,12.30
2023-05-15T21:58:48.879Z,12.20
2023-05-15T22:02:18.516Z,12.20
2023-05-15T22:05:42.270Z,12.30
2023-05-15T22:09:06.506Z,12.30
2023-05-15T22:12:31.645Z,12.20
2023-05-15T22:15:56.796Z,12.10
2023-05-15T22:19:32.754Z,12.10
2023-05-15T22:22:57.099Z,12.10
2023-05-15T22:26:21.156Z,12.00
2023-05-15T22:29:45.478Z,12.00
2023-05-15T22:33:10.929Z,12.00
2023-05-15T22:36:36.655Z,12.00
2023-05-15T22:40:05.948Z,11.90
2023-05-15T22:43:29.570Z,11.90
2023-05-15T22:46:53.461Z,11.70
2023-05-15T22:50:22.270Z,11.70
2023-05-15T22:53:45.848Z,11.70
2023-05-15T22:57:09.817Z,11.80
2023-05-15T23:00:34.034Z,11.80
2023-05-15T23:04:01.338Z,11.60
2023-05-15T23:07:26.492Z,11.40
2023-05-15T23:10:50.485Z,11.40
2023-05-15T23:14:15.751Z,11.30
2023-05-15T23:17:39.968Z,11.40
2023-05-15T23:21:04.752Z,11.20
2023-05-15T23:24:30.050Z,11.10
2023-05-15T23:27:55.097Z,11.10
2023-05-15T23:31:20.101Z,11.10
2023-05-15T23:34:54.412Z,11.20
2023-05-15T23:38:18.576Z,11.30
2023-05-15T23:41:46.630Z,11.30
2023-05-15T23:45:13.675Z,11.30
2023-05-15T23:48:37.249Z,11.30
2023-05-15T23:52:01.596Z,11.30
2023-05-15T23:55:25.653Z,11.30
2023-05-15T23:58:53.122Z,11.20
